createdAt,value
2022-10-29T00:01:18.242Z,12.16
2022-10-29T00:03:48.476Z,12.11
2022-10-29T00:06:17.436Z,12.03
2022-10-29T00:08:46.230Z,11.98
2022-10-29T00:11:19.195Z,11.95
2022-10-29T00:13:49.966Z,11.98
2022-10-29T00:16:21.855Z,11.87
2022-10-29T00:18:50.843Z,11.84
2022-10-29T00:21:23.242Z,11.90
2022-10-29T00:23:53.639Z,11.81
2022-10-29T00:26:24.746Z,12.24
2022-10-29T00:28:55.948Z,11.90
2022-10-29T00:31:25.949Z,11.76
2022-10-29T00:33:56.782Z,11.83
2022-10-29T00:36:28.344Z,11.90
2022-10-29T00:38:58.037Z,11.79
2022-10-29T00:41:31.266Z,11.63
2022-10-29T00:44:33.003Z,11.57
2022-10-29T00:47:14.834Z,11.51
2022-10-29T00:49:47.489Z,11.48
2022-10-29T00:52:20.500Z,11.70
2022-10-29T00:54:54.688Z,11.69
2022-10-29T00:57:30.750Z,11.48
2022-10-29T00:59:59.643Z,11.49
2022-10-29T01:02:28.817Z,11.36
2022-10-29T01:04:57.711Z,11.38
2022-10-29T01:07:26.664Z,11.38
2022-10-29T01:09:55.318Z,11.25
2022-10-29T01:13:03.737Z,11.21
2022-10-29T01:15:45.614Z,11.20
2022-10-29T01:18:23.988Z,11.19
2022-10-29T01:21:38.415Z,11.22
2022-10-29T01:25:01.180Z,11.41
2022-10-29T01:27:57.306Z,11.34
2022-10-29T01:31:01.835Z,11.09
2022-10-29T01:33:41.393Z,11.23
2022-10-29T01:36:20.402Z,11.43
2022-10-29T01:39:02.671Z,11.60
2022-10-29T01:41:43.039Z,11.19
2022-10-29T01:44:38.856Z,11.09
2022-10-29T01:47:16.146Z,11.02
2022-10-29T01:49:51.529Z,11.04
2022-10-29T01:52:24.066Z,11.02
2022-10-29T01:54:53.049Z,11.09
2022-10-29T01:57:32.078Z,11.08
2022-10-29T02:00:07.951Z,10.96
2022-10-29T02:03:08.678Z,10.91
2022-10-29T02:05:47.795Z,10.85
2022-10-29T02:08:32.983Z,10.82
2022-10-29T02:11:10.598Z,10.80
2022-10-29T02:13:45.541Z,10.86
2022-10-29T02:16:15.400Z,10.78
2022-10-29T02:18:49.405Z,10.73
2022-10-29T02:21:19.608Z,10.73
2022-10-29T02:23:48.803Z,10.71
2022-10-29T02:26:18.116Z,10.75
2022-10-29T02:28:46.661Z,10.74
2022-10-29T02:31:15.202Z,10.68
2022-10-29T02:33:45.311Z,10.68
2022-10-29T02:36:13.916Z,10.63
2022-10-29T02:38:42.417Z,10.66
2022-10-29T02:41:11.115Z,10.65
2022-10-29T02:43:39.598Z,10.64
2022-10-29T02:46:14.054Z,10.62
2022-10-29T02:48:43.067Z,10.57
2022-10-29T02:51:13.687Z,10.59
2022-10-29T02:53:42.397Z,10.61
2022-10-29T02:56:11.860Z,10.59
2022-10-29T02:58:40.533Z,10.63
2022-10-29T03:01:09.020Z,10.62
2022-10-29T03:03:37.742Z,10.61
2022-10-29T03:06:15.277Z,10.59
2022-10-29T03:08:44.177Z,10.64
2022-10-29T03:11:13.490Z,10.64
2022-10-29T03:13:42.018Z,10.66
2022-10-29T03:16:11.206Z,10.65
2022-10-29T03:18:39.798Z,10.63
2022-10-29T03:21:08.387Z,10.65
2022-10-29T03:23:38.569Z,10.66
2022-10-29T03:26:07.454Z,10.72
2022-10-29T03:28:36.055Z,10.74
2022-10-29T03:31:04.961Z,10.78
2022-10-29T03:33:33.634Z,10.81
2022-10-29T03:36:05.297Z,10.89
2022-10-29T03:38:35.139Z,10.91
2022-10-29T03:41:10.398Z,11.01
2022-10-29T03:43:40.443Z,10.98
2022-10-29T03:46:10.119Z,10.98
2022-10-29T03:48:39.035Z,11.02
2022-10-29T03:51:08.320Z,11.09
2022-10-29T03:53:37.945Z,11.03
2022-10-29T03:56:08.595Z,10.99
2022-10-29T03:58:37.317Z,11.17
2022-10-29T04:01:08.684Z,11.44
2022-10-29T04:03:42.310Z,11.32
2022-10-29T04:06:13.267Z,11.26
2022-10-29T04:08:43.054Z,11.47
2022-10-29T04:11:14.899Z,11.33
2022-10-29T04:13:43.617Z,11.31
2022-10-29T04:16:12.133Z,11.29
2022-10-29T04:18:40.685Z,11.28
2022-10-29T04:29:37.696Z,11.57
2022-10-29T04:32:06.644Z,11.59
2022-10-29T04:34:35.147Z,11.57
2022-10-29T04:37:03.678Z,11.66
2022-10-29T04:39:32.389Z,11.73
2022-10-29T04:42:02.325Z,12.75
2022-10-29T04:44:31.042Z,12.24
2022-10-29T04:46:59.541Z,12.20
2022-10-29T04:49:28.183Z,12.18
2022-10-29T04:51:56.925Z,12.16
2022-10-29T04:54:25.447Z,12.16
2022-10-29T04:56:54.280Z,12.25
2022-10-29T04:59:24.286Z,12.66
2022-10-29T05:01:52.968Z,12.53
2022-10-29T05:04:21.554Z,12.51
2022-10-29T05:06:50.263Z,12.78
2022-10-29T05:09:18.765Z,12.63
2022-10-29T05:11:47.434Z,12.73
2022-10-29T05:14:15.994Z,13.02
2022-10-29T05:16:46.049Z,13.51
2022-10-29T05:19:14.558Z,13.32
2022-10-29T05:21:43.252Z,13.27
2022-10-29T05:24:11.794Z,14.11
2022-10-29T05:26:40.540Z,14.62
2022-10-29T05:29:09.003Z,14.02
2022-10-29T05:31:37.676Z,14.18
2022-10-29T05:34:07.560Z,14.69
2022-10-29T05:36:36.239Z,14.57
2022-10-29T05:39:04.946Z,14.16
2022-10-29T05:41:33.624Z,14.03
2022-10-29T05:44:02.268Z,14.54
2022-10-29T05:46:31.013Z,14.70
2022-10-29T05:48:59.517Z,14.23
2022-10-29T05:51:29.561Z,14.54
2022-10-29T05:53:58.119Z,14.73
2022-10-29T05:56:26.892Z,15.64
2022-10-29T05:58:55.460Z,15.21
2022-10-29T06:01:24.252Z,15.19
2022-10-29T06:06:26.561Z,14.59
2022-10-29T06:08:56.557Z,15.18
2022-10-29T06:11:25.371Z,15.64
2022-10-29T06:13:57.192Z,16.21
2022-10-29T06:16:25.958Z,15.42
2022-10-29T06:18:54.536Z,14.70
2022-10-29T06:21:23.237Z,15.20
2022-10-29T06:23:56.127Z,14.69
2022-10-29T06:26:24.808Z,14.36
2022-10-29T06:28:53.321Z,14.67
2022-10-29T06:31:22.071Z,14.56
2022-10-29T06:33:50.587Z,14.41
2022-10-29T06:36:19.297Z,14.54
2022-10-29T06:38:47.893Z,15.09
2022-10-29T06:41:18.129Z,14.74
2022-10-29T06:43:46.643Z,14.43
2022-10-29T06:46:15.362Z,15.07
2022-10-29T06:48:43.823Z,14.70
2022-10-29T06:51:12.601Z,14.53
2022-10-29T06:53:41.155Z,15.38
2022-10-29T06:56:09.920Z,16.00
2022-10-29T06:58:40.005Z,16.57
2022-10-29T07:01:08.724Z,15.62
2022-10-29T07:03:37.251Z,16.43
2022-10-29T07:06:06.298Z,16.41
2022-10-29T07:08:35.055Z,15.75
2022-10-29T07:11:04.518Z,16.40
2022-10-29T07:13:33.358Z,16.31
2022-10-29T07:16:03.373Z,16.17
2022-10-29T07:18:32.871Z,16.33
2022-10-29T07:21:03.811Z,16.74
2022-10-29T07:23:32.738Z,16.78
2022-10-29T07:26:01.286Z,16.57
2022-10-29T07:28:30.003Z,16.54
2022-10-29T07:31:02.497Z,16.50
2022-10-29T07:33:31.882Z,17.49
2022-10-29T07:36:01.426Z,17.15
2022-10-29T07:38:30.196Z,17.26
2022-10-29T07:40:58.718Z,17.09
2022-10-29T07:43:27.432Z,16.94
2022-10-29T07:45:55.931Z,17.43
2022-10-29T07:48:25.995Z,17.81
2022-10-29T07:50:54.876Z,17.47
2022-10-29T07:53:23.605Z,17.54
2022-10-29T07:55:55.821Z,17.93
2022-10-29T07:58:25.721Z,17.79
2022-10-29T08:00:54.985Z,17.93
2022-10-29T08:03:25.100Z,18.04
2022-10-29T08:05:55.451Z,17.17
2022-10-29T08:08:25.842Z,17.79
2022-10-29T08:10:54.443Z,17.64
2022-10-29T08:13:22.948Z,17.43
2022-10-29T08:15:51.635Z,17.96
2022-10-29T08:18:20.398Z,17.62
2022-10-29T08:20:50.416Z,18.10
2022-10-29T08:23:19.347Z,18.34
2022-10-29T08:25:47.885Z,18.84
2022-10-29T08:28:17.456Z,18.80
2022-10-29T08:30:51.559Z,18.54
2022-10-29T08:33:20.819Z,18.86
2022-10-29T08:35:51.116Z,18.35
2022-10-29T08:38:19.971Z,18.32
2022-10-29T08:41:10.326Z,18.76
2022-10-29T08:44:24.579Z,19.05
2022-10-29T08:47:06.977Z,18.05
2022-10-29T08:49:42.829Z,18.50
2022-10-29T08:52:20.852Z,19.18
2022-10-29T08:55:05.118Z,18.87
2022-10-29T08:57:42.105Z,19.37
2022-10-29T09:00:20.049Z,18.98
2022-10-29T09:02:49.610Z,19.16
2022-10-29T09:05:25.938Z,19.32
2022-10-29T09:08:27.227Z,19.36
2022-10-29T09:11:01.956Z,19.19
2022-10-29T09:13:48.902Z,18.91
2022-10-29T09:16:34.481Z,18.71
2022-10-29T09:19:29.284Z,18.56
2022-10-29T09:22:12.275Z,18.46
2022-10-29T09:24:55.879Z,17.97
2022-10-29T09:27:46.175Z,18.38
2022-10-29T09:30:18.772Z,18.72
2022-10-29T09:33:00.800Z,18.72
2022-10-29T09:35:40.308Z,19.07
2022-10-29T09:38:19.243Z,18.75
2022-10-29T09:40:49.503Z,18.50
2022-10-29T09:43:34.342Z,18.85
2022-10-29T09:46:14.466Z,18.73
2022-10-29T09:48:57.365Z,18.51
2022-10-29T09:51:41.960Z,18.91
2022-10-29T09:54:11.408Z,18.98
2022-10-29T09:56:48.536Z,19.03
2022-10-29T09:59:30.616Z,18.79
2022-10-29T10:02:00.826Z,18.87
2022-10-29T10:04:36.972Z,18.57
2022-10-29T10:07:09.156Z,18.73
2022-10-29T10:09:57.042Z,18.89
2022-10-29T10:12:30.676Z,18.68
2022-10-29T10:15:18.341Z,18.52
2022-10-29T10:18:00.785Z,18.44
2022-10-29T10:20:37.499Z,18.31
2022-10-29T10:23:24.092Z,18.27
2022-10-29T10:25:58.888Z,18.40
2022-10-29T10:28:34.853Z,18.61
2022-10-29T10:31:12.516Z,18.41
2022-10-29T10:33:52.834Z,18.66
2022-10-29T10:36:26.474Z,18.69
2022-10-29T10:38:59.451Z,18.54
2022-10-29T10:41:33.844Z,18.44
2022-10-29T10:44:06.239Z,18.54
2022-10-29T10:46:40.096Z,18.28
2022-10-29T10:49:17.109Z,18.34
2022-10-29T10:51:51.816Z,18.00
2022-10-29T10:54:42.104Z,17.97
2022-10-29T10:57:24.189Z,17.72
2022-10-29T11:00:03.657Z,18.24
2022-10-29T11:02:44.324Z,18.48
2022-10-29T11:05:19.516Z,18.58
2022-10-29T11:07:58.605Z,18.86
2022-10-29T11:10:38.163Z,18.99
2022-10-29T11:13:14.919Z,18.76
2022-10-29T11:15:55.176Z,18.84
2022-10-29T11:18:31.753Z,18.88
2022-10-29T11:21:11.725Z,19.09
2022-10-29T11:24:02.227Z,19.35
2022-10-29T11:26:38.668Z,19.09
2022-10-29T11:29:20.226Z,18.72
2022-10-29T11:32:01.515Z,18.94
2022-10-29T11:34:46.813Z,18.78
2022-10-29T11:37:26.671Z,19.05
2022-10-29T11:40:03.643Z,19.18
2022-10-29T11:42:32.373Z,18.78
2022-10-29T11:45:01.581Z,18.76
2022-10-29T11:48:03.310Z,18.47
2022-10-29T11:50:45.679Z,18.87
2022-10-29T11:53:39.151Z,19.34
2022-10-29T11:56:20.476Z,19.47
2022-10-29T11:58:58.579Z,18.99
2022-10-29T12:01:42.041Z,19.12
2022-10-29T12:04:28.094Z,19.38
2022-10-29T12:07:15.215Z,19.50
2022-10-29T12:10:22.891Z,19.59
2022-10-29T12:13:05.493Z,19.30
2022-10-29T12:15:41.520Z,19.52
2022-10-29T12:18:23.940Z,19.43
2022-10-29T12:21:07.048Z,19.69
2022-10-29T12:23:58.322Z,19.27
2022-10-29T12:26:39.981Z,19.29
2022-10-29T12:29:19.016Z,19.66
2022-10-29T12:31:58.197Z,19.49
2022-10-29T12:34:34.967Z,19.75
2022-10-29T12:37:14.444Z,19.42
2022-10-29T12:39:50.953Z,19.61
2022-10-29T12:42:25.928Z,19.65
2022-10-29T12:45:16.300Z,19.09
2022-10-29T12:47:53.882Z,19.37
2022-10-29T12:50:38.199Z,19.12
2022-10-29T12:53:21.818Z,18.85
2022-10-29T12:55:52.083Z,19.42
2022-10-29T12:58:44.924Z,19.66
2022-10-29T13:02:10.654Z,19.45
2022-10-29T13:04:37.957Z,19.53
2022-10-29T13:07:24.634Z,19.75
2022-10-29T13:10:51.612Z,19.71
2022-10-29T13:13:49.703Z,19.46
2022-10-29T13:16:22.844Z,19.44
2022-10-29T13:19:10.359Z,19.68
2022-10-29T13:22:03.540Z,19.56
2022-10-29T13:24:33.296Z,19.41
2022-10-29T13:27:27.330Z,19.05
2022-10-29T13:30:25.471Z,18.96
2022-10-29T13:32:55.404Z,19.21
2022-10-29T13:35:43.512Z,19.10
2022-10-29T13:38:16.039Z,19.15
2022-10-29T13:41:11.866Z,18.99
2022-10-29T13:43:52.376Z,18.79
2022-10-29T13:46:45.870Z,18.75
2022-10-29T13:49:21.385Z,18.63
2022-10-29T13:51:58.442Z,18.37
2022-10-29T13:54:45.106Z,18.39
2022-10-29T13:57:24.571Z,18.59
2022-10-29T14:00:02.693Z,18.20
2022-10-29T14:02:54.424Z,18.12
2022-10-29T14:05:29.623Z,18.71
2022-10-29T14:08:08.412Z,18.77
2022-10-29T14:10:46.045Z,18.45
2022-10-29T14:13:30.887Z,18.46
2022-10-29T14:16:11.356Z,18.08
2022-10-29T14:18:42.050Z,18.02
2022-10-29T14:21:17.639Z,18.19
2022-10-29T14:24:01.956Z,18.11
2022-10-29T14:26:32.983Z,18.27
2022-10-29T14:29:16.212Z,18.39
2022-10-29T14:31:47.115Z,17.95
2022-10-29T14:34:27.044Z,18.25
2022-10-29T14:37:00.682Z,18.20
2022-10-29T14:39:55.522Z,17.80
2022-10-29T14:42:32.890Z,18.04
2022-10-29T14:45:05.920Z,17.76
2022-10-29T14:47:38.454Z,17.90
2022-10-29T14:50:19.788Z,17.79
2022-10-29T14:52:54.264Z,17.69
2022-10-29T14:55:27.410Z,17.04
2022-10-29T14:58:05.833Z,16.99
2022-10-29T15:00:38.354Z,16.78
2022-10-29T15:03:09.087Z,17.45
2022-10-29T15:05:39.921Z,16.94
2022-10-29T15:08:19.149Z,16.96
2022-10-29T15:10:51.248Z,17.83
2022-10-29T15:13:30.460Z,17.48
2022-10-29T15:16:05.785Z,17.06
2022-10-29T15:18:38.703Z,17.64
2022-10-29T15:21:07.961Z,17.07
2022-10-29T15:23:43.744Z,17.56
2022-10-29T15:26:20.596Z,17.39
2022-10-29T15:28:52.383Z,17.84
2022-10-29T15:31:27.728Z,17.55
2022-10-29T15:34:09.025Z,17.42
2022-10-29T15:36:47.834Z,17.83
2022-10-29T15:39:27.797Z,17.22
2022-10-29T15:42:00.182Z,16.85
2022-10-29T15:44:40.523Z,17.03
2022-10-29T15:47:28.319Z,17.27
2022-10-29T15:49:58.791Z,16.77
2022-10-29T15:52:33.781Z,16.88
2022-10-29T15:55:06.754Z,17.23
2022-10-29T15:57:36.076Z,16.51
2022-10-29T16:00:07.958Z,16.42
2022-10-29T16:02:37.491Z,15.84
2022-10-29T16:05:08.613Z,15.66
2022-10-29T16:07:37.220Z,15.66
2022-10-29T16:10:07.320Z,15.26
2022-10-29T16:12:35.847Z,15.07
2022-10-29T16:15:04.888Z,15.32
2022-10-29T16:17:33.375Z,15.60
2022-10-29T16:20:01.877Z,15.92
2022-10-29T16:22:32.059Z,16.65
2022-10-29T16:25:00.552Z,15.59
2022-10-29T16:27:29.350Z,15.12
2022-10-29T16:29:58.160Z,15.19
2022-10-29T16:32:27.015Z,14.89
2022-10-29T16:34:55.498Z,15.40
2022-10-29T16:37:24.216Z,15.49
2022-10-29T16:39:54.195Z,14.86
2022-10-29T16:42:31.591Z,14.73
2022-10-29T16:45:00.335Z,14.67
2022-10-29T16:47:29.307Z,14.33
2022-10-29T16:49:57.917Z,14.26
2022-10-29T16:52:29.468Z,14.15
2022-10-29T16:55:00.008Z,14.14
2022-10-29T16:57:29.540Z,14.33
2022-10-29T16:59:58.354Z,14.36
2022-10-29T17:02:26.998Z,14.56
2022-10-29T17:04:55.556Z,14.22
2022-10-29T17:07:24.355Z,14.92
2022-10-29T17:09:52.923Z,15.03
2022-10-29T17:12:22.845Z,14.87
2022-10-29T17:14:51.586Z,15.18
2022-10-29T17:17:20.188Z,15.47
2022-10-29T17:19:48.968Z,16.20
2022-10-29T17:22:17.655Z,16.12
2022-10-29T17:24:46.420Z,16.72
2022-10-29T17:27:15.501Z,15.52
2022-10-29T17:29:45.388Z,15.74
2022-10-29T17:32:14.099Z,15.34
2022-10-29T17:34:42.677Z,15.24
2022-10-29T17:37:12.082Z,16.06
2022-10-29T17:39:40.625Z,14.96
2022-10-29T17:42:09.633Z,14.66
2022-10-29T17:44:38.160Z,14.40
2022-10-29T17:47:08.032Z,14.84
2022-10-29T17:49:36.761Z,15.13
2022-10-29T17:52:06.186Z,15.42
2022-10-29T17:54:35.390Z,14.72
2022-10-29T17:57:04.485Z,15.04
2022-10-29T17:59:33.014Z,14.90
2022-10-29T18:02:01.598Z,14.69
2022-10-29T18:04:31.809Z,15.49
2022-10-29T18:07:00.327Z,15.00
2022-10-29T18:09:29.075Z,14.82
2022-10-29T18:11:57.632Z,15.36
2022-10-29T18:14:26.232Z,15.06
2022-10-29T18:16:54.949Z,14.67
2022-10-29T18:19:23.829Z,14.36
2022-10-29T18:21:53.890Z,14.35
2022-10-29T18:24:24.251Z,14.28
2022-10-29T18:26:53.130Z,14.57
2022-10-29T18:29:21.659Z,14.29
2022-10-29T18:31:50.385Z,14.21
2022-10-29T18:34:18.978Z,14.34
2022-10-29T18:36:47.865Z,14.34
2022-10-29T18:39:18.057Z,14.33
2022-10-29T18:41:46.582Z,13.90
2022-10-29T18:44:15.075Z,13.59
2022-10-29T18:46:44.020Z,13.41
2022-10-29T18:49:13.546Z,13.47
2022-10-29T18:51:42.404Z,14.07
2022-10-29T18:54:14.583Z,13.87
2022-10-29T18:56:44.775Z,13.53
2022-10-29T18:59:14.439Z,13.26
2022-10-29T19:01:43.353Z,13.14
2022-10-29T19:04:15.717Z,13.23
2022-10-29T19:06:45.147Z,13.23
2022-10-29T19:09:13.867Z,13.76
2022-10-29T19:11:43.937Z,13.47
2022-10-29T19:14:15.115Z,13.10
2022-10-29T19:16:43.884Z,13.01
2022-10-29T19:19:17.062Z,12.89
2022-10-29T19:21:47.317Z,12.81
2022-10-29T19:24:16.601Z,12.88
2022-10-29T19:26:46.797Z,12.78
2022-10-29T19:29:16.100Z,12.72
2022-10-29T19:31:47.601Z,12.65
2022-10-29T19:34:16.242Z,12.59
2022-10-29T19:36:45.497Z,12.58
2022-10-29T19:39:14.223Z,12.49
2022-10-29T19:41:42.740Z,12.48
2022-10-29T19:44:12.782Z,12.48
2022-10-29T19:46:43.228Z,12.42
2022-10-29T19:49:11.941Z,12.38
2022-10-29T19:51:40.536Z,12.39
2022-10-29T19:54:09.470Z,12.35
2022-10-29T19:56:37.997Z,12.33
2022-10-29T19:59:07.088Z,12.27
2022-10-29T20:01:38.424Z,12.25
2022-10-29T20:04:07.264Z,12.19
2022-10-29T20:06:35.836Z,12.13
2022-10-29T20:09:04.765Z,12.08
2022-10-29T20:11:33.430Z,12.03
2022-10-29T20:14:02.582Z,12.04
2022-10-29T20:16:31.142Z,11.96
2022-10-29T20:19:01.728Z,12.02
2022-10-29T20:21:30.462Z,11.88
2022-10-29T20:23:59.110Z,11.78
2022-10-29T20:26:27.971Z,11.77
2022-10-29T20:28:57.087Z,11.81
2022-10-29T20:31:31.009Z,11.85
2022-10-29T20:34:02.723Z,11.87
2022-10-29T20:36:33.598Z,11.91
2022-10-29T20:39:02.748Z,12.13
2022-10-29T20:41:31.713Z,11.79
2022-10-29T20:44:02.293Z,11.77
2022-10-29T20:46:31.323Z,11.85
2022-10-29T20:49:00.159Z,11.67
2022-10-29T20:51:30.284Z,11.57
2022-10-29T20:53:59.122Z,11.57
2022-10-29T20:56:29.166Z,11.50
2022-10-29T20:58:58.110Z,11.49
2022-10-29T21:01:27.049Z,11.45
2022-10-29T21:03:56.134Z,11.45
2022-10-29T21:06:24.908Z,11.46
2022-10-29T21:08:54.779Z,11.61
2022-10-29T21:11:24.941Z,11.62
2022-10-29T21:13:53.522Z,11.69
2022-10-29T21:16:26.463Z,11.68
2022-10-29T21:18:58.226Z,12.27
2022-10-29T21:21:29.673Z,11.86
2022-10-29T21:24:00.027Z,11.74
2022-10-29T21:26:30.420Z,11.76
2022-10-29T21:28:59.066Z,11.74
2022-10-29T21:31:28.032Z,11.78
2022-10-29T21:33:57.250Z,11.83
2022-10-29T21:36:25.780Z,12.04
2022-10-29T21:38:54.543Z,11.88
2022-10-29T21:41:24.438Z,11.96
2022-10-29T21:43:53.135Z,12.01
2022-10-29T21:46:21.842Z,12.21
2022-10-29T21:48:50.382Z,12.05
2022-10-29T21:51:18.926Z,12.39
2022-10-29T21:53:47.659Z,12.71
2022-10-29T21:56:16.974Z,12.87
2022-10-29T21:58:46.878Z,12.65
2022-10-29T22:01:17.538Z,12.73
2022-10-29T22:03:49.072Z,13.24
2022-10-29T22:06:20.829Z,13.38
2022-10-29T22:08:55.599Z,14.11
2022-10-29T22:11:26.024Z,14.08
2022-10-29T22:13:56.428Z,13.74
2022-10-29T22:16:25.117Z,13.55
2022-10-29T22:18:54.274Z,13.84
2022-10-29T22:21:25.702Z,13.82
2022-10-29T22:23:56.772Z,14.28
2022-10-29T22:26:28.883Z,14.21
2022-10-29T22:28:59.712Z,13.86
2022-10-29T22:31:28.371Z,13.91
2022-10-29T22:33:57.062Z,13.40
2022-10-29T22:36:28.273Z,13.08
2022-10-29T22:38:58.906Z,12.93
2022-10-29T22:41:29.850Z,12.93
2022-10-29T22:44:00.819Z,12.92
2022-10-29T22:46:31.287Z,13.01
2022-10-29T22:49:01.763Z,13.72
2022-10-29T22:51:33.844Z,13.43
2022-10-29T22:54:03.069Z,13.38
2022-10-29T22:56:34.423Z,13.39
2022-10-29T22:59:05.992Z,13.87
2022-10-29T23:01:42.106Z,13.98
2022-10-29T23:04:13.907Z,14.43
2022-10-29T23:06:42.876Z,14.70
2022-10-29T23:09:11.527Z,15.42
2022-10-29T23:11:40.231Z,15.06
2022-10-29T23:14:10.413Z,15.08
2022-10-29T23:16:39.015Z,14.02
2022-10-29T23:19:08.104Z,15.12
2022-10-29T23:21:37.516Z,14.78
2022-10-29T23:24:06.911Z,14.73
2022-10-29T23:26:35.434Z,14.08
2022-10-29T23:29:04.302Z,13.86
2022-10-29T23:31:34.169Z,13.91
2022-10-29T23:34:02.661Z,13.76
2022-10-29T23:36:31.482Z,13.97
2022-10-29T23:39:02.238Z,13.88
2022-10-29T23:41:32.571Z,13.61
2022-10-29T23:44:01.572Z,15.06
2022-10-29T23:46:30.476Z,14.06
2022-10-29T23:49:00.420Z,13.51
2022-10-29T23:51:29.180Z,13.25
2022-10-29T23:53:57.985Z,13.06
2022-10-29T23:56:27.154Z,12.98
2022-10-29T23:58:56.186Z,13.50
